Time;durP1;ratioP1;P1;durP2;ratioP2;P2;SDS_P1;SDS_P2;PMS_P1;PMS_P2;Temp;Humidity;BMP_temperature;BMP_pressure;BME280_temperature;BME280_humidity;BME280_pressure;Samples;Min_cycle;Max_cycle;Signal;HPM_P1;HPM_P2
2022/03/10 00:02:09;;;;;;;22.05;11.05;;;;;;;;;;5032746;28;20398;-69
2022/03/10 00:04:35;;;;;;;24.98;12.35;;;;;;;;;;5032380;28;20487;-69
2022/03/10 00:07:02;;;;;;;21.48;11.60;;;;;;;;;;5032628;28;20494;-69
2022/03/10 00:09:32;;;;;;;22.00;11.95;;;;;;;;;;5032442;28;20029;-71
2022/03/10 00:11:58;;;;;;;21.77;11.70;;;;;;;;;;5031744;28;20021;-68
2022/03/10 00:14:24;;;;;;;22.60;12.07;;;;;;;;;;5030782;28;20033;-71
2022/03/10 00:16:49;;;;;;;23.42;11.43;;;;;;;;;;5032495;28;20026;-69
2022/03/10 00:19:16;;;;;;;21.98;12.18;;;;;;;;;;5032467;28;20448;-69
2022/03/10 00:21:42;;;;;;;24.13;12.70;;;;;;;;;;5032430;28;20021;-69
2022/03/10 00:24:07;;;;;;;19.98;11.98;;;;;;;;;;5032438;28;20026;-68
2022/03/10 00:26:32;;;;;;;25.23;12.60;;;;;;;;;;5032256;28;20090;-69
2022/03/10 00:28:58;;;;;;;24.55;11.98;;;;;;;;;;5031679;28;20037;-69
2022/03/10 00:31:23;;;;;;;26.95;12.07;;;;;;;;;;5032188;28;20026;-69
2022/03/10 00:33:48;;;;;;;23.88;11.65;;;;;;;;;;5032055;28;20487;-69
2022/03/10 00:36:14;;;;;;;33.15;13.80;;;;;;;;;;5032022;28;20025;-69
2022/03/10 00:38:40;;;;;;;31.05;14.77;;;;;;;;;;5031933;28;20467;-69
2022/03/10 00:41:05;;;;;;;34.90;15.23;;;;;;;;;;5031500;28;20507;-69
2022/03/10 00:43:30;;;;;;;26.58;13.05;;;;;;;;;;5031706;28;20083;-71
2022/03/10 00:45:56;;;;;;;23.38;11.57;;;;;;;;;;5031438;28;20021;-69
2022/03/10 00:48:21;;;;;;;23.65;12.30;;;;;;;;;;5031784;28;20365;-69
2022/03/10 00:50:46;;;;;;;24.83;12.32;;;;;;;;;;5031437;28;20459;-68
2022/03/10 00:53:12;;;;;;;26.23;13.73;;;;;;;;;;5031895;28;20067;-70
2022/03/10 00:55:37;;;;;;;31.95;14.82;;;;;;;;;;5031642;28;20032;-71
2022/03/10 00:58:02;;;;;;;27.75;13.55;;;;;;;;;;5031679;28;20467;-68
2022/03/10 01:00:29;;;;;;;22.50;12.10;;;;;;;;;;5031071;28;20036;-69
2022/03/10 01:02:55;;;;;;;26.27;13.00;;;;;;;;;;5031410;28;20100;-68
2022/03/10 01:05:21;;;;;;;22.80;11.95;;;;;;;;;;5031649;28;20025;-68
2022/03/10 01:07:47;;;;;;;21.95;10.95;;;;;;;;;;5031513;28;20117;-70
2022/03/10 01:10:14;;;;;;;21.90;11.55;;;;;;;;;;5031416;28;20104;-69
2022/03/10 01:12:42;;;;;;;19.13;10.55;;;;;;;;;;5031528;28;20464;-69
2022/03/10 01:15:09;;;;;;;21.08;11.70;;;;;;;;;;5030789;28;20033;-70
2022/03/10 01:17:35;;;;;;;21.42;11.70;;;;;;;;;;5031225;28;20083;-70
2022/03/10 01:20:00;;;;;;;22.65;12.15;;;;;;;;;;5030881;28;20029;-69
2022/03/10 01:22:25;;;;;;;22.90;11.85;;;;;;;;;;5031216;28;20017;-70
2022/03/10 01:24:51;;;;;;;26.83;13.88;;;;;;;;;;5031105;28;20086;-69
2022/03/10 01:27:16;;;;;;;30.73;16.65;;;;;;;;;;5030961;28;20026;-70
2022/03/10 01:29:41;;;;;;;26.38;14.32;;;;;;;;;;5030966;28;20030;-70
2022/03/10 01:32:07;;;;;;;28.77;14.43;;;;;;;;;;5029301;28;20041;-69
2022/03/10 01:34:32;;;;;;;29.33;14.80;;;;;;;;;;5030916;28;20156;-69
2022/03/10 01:36:58;;;;;;;26.58;14.45;;;;;;;;;;5030831;28;20025;-69
2022/03/10 01:39:24;;;;;;;28.30;13.70;;;;;;;;;;5030380;28;20494;-68
2022/03/10 01:41:49;;;;;;;25.38;13.00;;;;;;;;;;5031250;28;20029;-69
2022/03/10 01:44:16;;;;;;;21.27;11.52;;;;;;;;;;5030812;28;20099;-70
2022/03/10 01:46:41;;;;;;;25.83;12.70;;;;;;;;;;5030786;28;20033;-69
2022/03/10 01:49:07;;;;;;;32.15;15.52;;;;;;;;;;5030211;28;20572;-69
2022/03/10 01:51:34;;;;;;;23.83;12.50;;;;;;;;;;5030495;28;20101;-68
2022/03/10 01:54:00;;;;;;;23.85;12.35;;;;;;;;;;5030434;28;20036;-69
2022/03/10 01:56:26;;;;;;;22.98;11.82;;;;;;;;;;5030850;28;20022;-69
2022/03/10 01:58:53;;;;;;;23.42;11.85;;;;;;;;;;5030690;28;20024;-71
2022/03/10 02:01:19;;;;;;;25.58;12.10;;;;;;;;;;5030571;28;20029;-71
2022/03/10 02:03:45;;;;;;;27.02;12.80;;;;;;;;;;5030369;28;20486;-68
2022/03/10 02:06:13;;;;;;;26.48;12.90;;;;;;;;;;5030216;28;20049;-70
2022/03/10 02:11:23;;;;;;;19.63;11.55;;;;;;;;;;5030603;28;20095;-70
2022/03/10 02:13:49;;;;;;;21.30;11.30;;;;;;;;;;5029988;28;20467;-69
2022/03/10 02:19:00;;;;;;;22.75;11.27;;;;;;;;;;5029698;28;20036;-73
2022/03/10 02:21:26;;;;;;;22.25;11.30;;;;;;;;;;5029298;28;20290;-73
2022/03/10 02:23:52;;;;;;;20.55;10.80;;;;;;;;;;5030348;28;20033;-73
2022/03/10 02:26:17;;;;;;;19.33;11.23;;;;;;;;;;5029852;28;20025;-73
2022/03/10 02:28:43;;;;;;;21.42;10.70;;;;;;;;;;5029323;28;20090;-73
2022/03/10 02:31:09;;;;;;;20.90;10.85;;;;;;;;;;5030126;28;20417;-73
2022/03/10 02:33:34;;;;;;;22.88;10.30;;;;;;;;;;5029798;28;20034;-73
2022/03/10 02:36:00;;;;;;;22.58;11.88;;;;;;;;;;5030032;28;20099;-73
2022/03/10 02:38:25;;;;;;;21.13;11.57;;;;;;;;;;5028698;28;20037;-73
2022/03/10 02:40:51;;;;;;;21.33;11.20;;;;;;;;;;5029791;28;20021;-73
2022/03/10 02:43:18;;;;;;;19.80;11.00;;;;;;;;;;5030329;28;20079;-73
2022/03/10 02:45:44;;;;;;;19.05;11.25;;;;;;;;;;5030407;28;20370;-73
2022/03/10 02:48:09;;;;;;;22.45;11.35;;;;;;;;;;5029444;28;20172;-73
2022/03/10 02:50:35;;;;;;;21.85;10.98;;;;;;;;;;5029723;28;20704;-73
2022/03/10 02:53:00;;;;;;;21.38;11.18;;;;;;;;;;5029858;28;20021;-73
2022/03/10 02:55:25;;;;;;;23.25;10.90;;;;;;;;;;5029750;28;20037;-74
2022/03/10 02:57:51;;;;;;;23.02;10.68;;;;;;;;;;5029847;28;20160;-73
2022/03/10 03:00:18;;;;;;;23.60;11.40;;;;;;;;;;5029927;28;20029;-74
2022/03/10 03:02:43;;;;;;;22.92;11.07;;;;;;;;;;5029546;28;20026;-74
2022/03/10 03:05:12;;;;;;;19.15;10.32;;;;;;;;;;5029935;28;20037;-73
2022/03/10 03:07:38;;;;;;;31.98;11.45;;;;;;;;;;5029737;28;20022;-73
2022/03/10 03:10:04;;;;;;;23.95;10.70;;;;;;;;;;5029406;28;20037;-74
2022/03/10 03:12:30;;;;;;;22.30;11.32;;;;;;;;;;5029522;28;20108;-74
2022/03/10 03:14:56;;;;;;;19.42;10.98;;;;;;;;;;5029390;28;20509;-74
2022/03/10 03:17:21;;;;;;;22.98;11.02;;;;;;;;;;5029572;28;20029;-74
2022/03/10 03:19:46;;;;;;;21.42;11.45;;;;;;;;;;5029267;28;20035;-73
2022/03/10 03:22:12;;;;;;;20.85;10.70;;;;;;;;;;5029676;28;20024;-74
2022/03/10 03:24:37;;;;;;;19.58;10.35;;;;;;;;;;5029441;28;20438;-74
2022/03/10 03:27:03;;;;;;;21.33;11.95;;;;;;;;;;5029165;28;20383;-75
2022/03/10 03:29:28;;;;;;;24.08;11.68;;;;;;;;;;5029471;28;20100;-74
2022/03/10 03:31:54;;;;;;;21.42;11.20;;;;;;;;;;5029474;28;20025;-74
2022/03/10 03:34:19;;;;;;;21.02;10.32;;;;;;;;;;5029803;28;20034;-74
2022/03/10 03:36:45;;;;;;;20.48;10.40;;;;;;;;;;5029593;28;20061;-73
2022/03/10 03:39:12;;;;;;;20.75;9.98;;;;;;;;;;5029414;28;20037;-74
2022/03/10 03:41:38;;;;;;;22.48;10.45;;;;;;;;;;5029300;28;20032;-74
2022/03/10 03:44:03;;;;;;;20.58;10.00;;;;;;;;;;5029424;28;20029;-73
2022/03/10 03:46:29;;;;;;;20.92;10.68;;;;;;;;;;5029562;28;20040;-74
2022/03/10 03:48:55;;;;;;;20.27;10.70;;;;;;;;;;5030667;28;20018;-74
2022/03/10 03:51:21;;;;;;;21.10;11.07;;;;;;;;;;5031560;28;20061;-74
2022/03/10 03:53:47;;;;;;;20.98;11.10;;;;;;;;;;5033208;28;20057;-75
2022/03/10 03:56:12;;;;;;;22.30;10.43;;;;;;;;;;5032580;28;20272;-74
2022/03/10 03:58:38;;;;;;;21.27;11.10;;;;;;;;;;5032205;28;20069;-73
2022/03/10 04:01:03;;;;;;;22.25;11.27;;;;;;;;;;5032411;28;20593;-74
2022/03/10 04:03:28;;;;;;;21.77;11.52;;;;;;;;;;5032860;28;20079;-75
2022/03/10 04:05:53;;;;;;;21.90;10.75;;;;;;;;;;5032859;28;20494;-74
2022/03/10 04:08:21;;;;;;;24.05;11.02;;;;;;;;;;5032157;28;20037;-74
2022/03/10 04:10:46;;;;;;;20.98;10.40;;;;;;;;;;5033029;28;20021;-73
2022/03/10 04:13:12;;;;;;;20.88;11.30;;;;;;;;;;5031898;28;20029;-74
2022/03/10 04:15:37;;;;;;;22.30;11.30;;;;;;;;;;5032292;28;20031;-74
2022/03/10 04:18:03;;;;;;;19.33;10.85;;;;;;;;;;5032251;28;20033;-74
2022/03/10 04:20:29;;;;;;;24.63;11.18;;;;;;;;;;5032456;28;20031;-73
2022/03/10 04:22:54;;;;;;;22.10;11.10;;;;;;;;;;5032396;28;20055;-73
2022/03/10 04:25:20;;;;;;;23.40;11.32;;;;;;;;;;5032125;28;20033;-74
2022/03/10 04:27:45;;;;;;;23.08;11.63;;;;;;;;;;5032323;28;20057;-74
2022/03/10 04:30:11;;;;;;;21.73;11.00;;;;;;;;;;5031920;28;20036;-74
2022/03/10 04:32:44;;;;;;;25.13;10.93;;;;;;;;;;5032378;28;20025;-73
2022/03/10 04:35:12;;;;;;;24.65;11.20;;;;;;;;;;5031959;28;20029;-75
2022/03/10 04:37:37;;;;;;;20.50;11.38;;;;;;;;;;5031894;28;20460;-74
2022/03/10 04:40:06;;;;;;;22.90;11.02;;;;;;;;;;5031950;28;20036;-74
2022/03/10 04:42:32;;;;;;;24.83;11.05;;;;;;;;;;5032092;28;20022;-74
2022/03/10 04:44:57;;;;;;;23.33;11.52;;;;;;;;;;5031318;28;20033;-74
2022/03/10 04:47:23;;;;;;;21.13;11.10;;;;;;;;;;5031953;28;20037;-74
2022/03/10 04:49:48;;;;;;;23.60;11.55;;;;;;;;;;5031335;28;20040;-74
2022/03/10 04:52:13;;;;;;;22.92;11.20;;;;;;;;;;5032032;28;20060;-74
2022/03/10 04:54:38;;;;;;;19.60;11.10;;;;;;;;;;5031728;28;20057;-74
2022/03/10 04:57:04;;;;;;;23.65;10.82;;;;;;;;;;5032249;28;20036;-74
2022/03/10 04:59:31;;;;;;;25.05;12.13;;;;;;;;;;5030564;28;20061;-73
2022/03/10 05:01:56;;;;;;;23.83;11.95;;;;;;;;;;5031338;28;20036;-74
2022/03/10 05:04:22;;;;;;;23.27;12.00;;;;;;;;;;5031765;28;20025;-74
2022/03/10 05:06:47;;;;;;;21.35;10.80;;;;;;;;;;5031898;28;20561;-74
2022/03/10 05:09:12;;;;;;;20.95;10.45;;;;;;;;;;5031242;28;20048;-74
2022/03/10 05:11:38;;;;;;;24.50;10.68;;;;;;;;;;5031522;28;20026;-74
2022/03/10 05:14:04;;;;;;;21.27;11.25;;;;;;;;;;5030596;28;20383;-74
2022/03/10 05:16:29;;;;;;;22.35;10.50;;;;;;;;;;5031285;28;20487;-74
2022/03/10 05:18:54;;;;;;;20.65;11.23;;;;;;;;;;5031063;28;20451;-74
2022/03/10 05:21:20;;;;;;;24.52;11.02;;;;;;;;;;5031305;28;20083;-73
2022/03/10 05:23:45;;;;;;;27.55;13.10;;;;;;;;;;5031286;28;20025;-73
2022/03/10 05:26:10;;;;;;;27.95;13.32;;;;;;;;;;5031119;28;20197;-73
2022/03/10 05:28:36;;;;;;;26.38;12.77;;;;;;;;;;5031034;28;20026;-74
2022/03/10 05:31:01;;;;;;;27.02;13.20;;;;;;;;;;5030838;28;20029;-74
2022/03/10 05:33:27;;;;;;;28.13;13.20;;;;;;;;;;5030638;28;20204;-74
2022/03/10 05:35:52;;;;;;;22.10;11.60;;;;;;;;;;5031127;28;20483;-73
2022/03/10 05:38:18;;;;;;;24.67;11.95;;;;;;;;;;5030837;28;20033;-74
2022/03/10 05:40:43;;;;;;;23.90;11.70;;;;;;;;;;5031090;28;20045;-74
2022/03/10 05:43:09;;;;;;;23.50;11.68;;;;;;;;;;5030620;28;20029;-74
2022/03/10 05:45:35;;;;;;;22.70;12.02;;;;;;;;;;5031066;28;20267;-74
2022/03/10 05:48:00;;;;;;;26.58;11.90;;;;;;;;;;5030340;28;20109;-74
2022/03/10 05:50:26;;;;;;;23.17;11.95;;;;;;;;;;5030309;28;20029;-74
2022/03/10 05:52:52;;;;;;;23.50;11.05;;;;;;;;;;5030800;28;20030;-74
2022/03/10 05:55:18;;;;;;;24.15;11.35;;;;;;;;;;5030836;28;20040;-74
2022/03/10 05:57:44;;;;;;;21.35;11.38;;;;;;;;;;5030469;28;20029;-74
2022/03/10 06:00:11;;;;;;;22.40;11.57;;;;;;;;;;5030461;28;20025;-74
2022/03/10 06:02:37;;;;;;;20.85;10.85;;;;;;;;;;5030093;28;20022;-74
2022/03/10 06:05:03;;;;;;;20.17;10.73;;;;;;;;;;5030108;28;20033;-74
2022/03/10 06:07:29;;;;;;;24.73;11.68;;;;;;;;;;5030273;28;20032;-74
2022/03/10 06:09:55;;;;;;;24.02;11.35;;;;;;;;;;5030245;28;20021;-74
2022/03/10 06:12:21;;;;;;;21.63;11.88;;;;;;;;;;5030337;28;20024;-74
2022/03/10 06:14:47;;;;;;;20.92;11.38;;;;;;;;;;5030204;28;20418;-74
2022/03/10 06:17:12;;;;;;;22.90;11.95;;;;;;;;;;5030822;28;20029;-74
2022/03/10 06:19:37;;;;;;;22.33;11.05;;;;;;;;;;5029513;28;20029;-73
2022/03/10 06:22:03;;;;;;;20.20;10.82;;;;;;;;;;5030355;28;20483;-73
2022/03/10 06:24:28;;;;;;;23.65;11.95;;;;;;;;;;5025552;28;20118;-74
2022/03/10 06:26:53;;;;;;;24.67;11.98;;;;;;;;;;5025728;28;20082;-73
2022/03/10 06:29:19;;;;;;;28.15;12.95;;;;;;;;;;5029435;28;20440;-74
2022/03/10 06:31:44;;;;;;;23.80;11.95;;;;;;;;;;5030325;28;20513;-73
2022/03/10 06:34:10;;;;;;;26.65;11.52;;;;;;;;;;5026464;28;20030;-73
2022/03/10 06:36:35;;;;;;;20.35;11.07;;;;;;;;;;5018454;28;20507;-73
2022/03/10 06:39:01;;;;;;;19.23;10.45;;;;;;;;;;5010241;28;20392;-74
2022/03/10 06:41:26;;;;;;;21.63;11.75;;;;;;;;;;5028115;28;20104;-74
2022/03/10 06:43:52;;;;;;;21.55;11.57;;;;;;;;;;5029504;28;20126;-74
2022/03/10 06:46:17;;;;;;;28.25;13.13;;;;;;;;;;5014236;28;20380;-74
2022/03/10 06:48:42;;;;;;;23.45;11.57;;;;;;;;;;5029136;28;20069;-74
2022/03/10 06:51:08;;;;;;;28.05;12.90;;;;;;;;;;5029052;28;20127;-74
2022/03/10 06:53:33;;;;;;;28.67;13.27;;;;;;;;;;5030052;28;20026;-74
2022/03/10 06:55:58;;;;;;;25.80;12.77;;;;;;;;;;5029205;28;20220;-74
2022/03/10 06:58:24;;;;;;;26.15;13.27;;;;;;;;;;5023194;28;20368;-74
2022/03/10 07:00:50;;;;;;;32.40;15.55;;;;;;;;;;5029281;28;20044;-74
2022/03/10 07:03:15;;;;;;;29.95;15.38;;;;;;;;;;5028628;28;20414;-74
2022/03/10 07:05:41;;;;;;;28.48;15.63;;;;;;;;;;5029735;28;20119;-74
2022/03/10 07:08:07;;;;;;;31.48;15.38;;;;;;;;;;5027998;28;20033;-74
2022/03/10 07:10:32;;;;;;;25.50;14.48;;;;;;;;;;5021341;28;20037;-75
2022/03/10 07:12:58;;;;;;;27.67;14.63;;;;;;;;;;5024016;28;20029;-74
2022/03/10 07:15:23;;;;;;;31.55;14.77;;;;;;;;;;5029588;28;20419;-73
2022/03/10 07:17:48;;;;;;;30.45;16.05;;;;;;;;;;5029355;28;20365;-73
2022/03/10 07:20:14;;;;;;;30.92;14.73;;;;;;;;;;5029049;28;20037;-73
2022/03/10 07:22:40;;;;;;;29.05;14.50;;;;;;;;;;5022262;28;20021;-74
2022/03/10 07:25:09;;;;;;;26.25;14.38;;;;;;;;;;5032948;28;20025;-73
2022/03/10 07:27:34;;;;;;;43.88;20.65;;;;;;;;;;5032146;28;20025;-73
2022/03/10 07:30:00;;;;;;;45.15;18.13;;;;;;;;;;5032622;28;20037;-73
2022/03/10 07:32:26;;;;;;;29.27;15.48;;;;;;;;;;5032129;28;20025;-72
2022/03/10 07:34:51;;;;;;;23.52;12.77;;;;;;;;;;5030126;28;20021;-72
2022/03/10 07:37:17;;;;;;;24.35;12.65;;;;;;;;;;5012116;28;20041;-72
2022/03/10 07:39:42;;;;;;;25.67;13.27;;;;;;;;;;5023344;28;20391;-73
2022/03/10 07:42:08;;;;;;;26.95;15.32;;;;;;;;;;5032508;28;20040;-72
2022/03/10 07:44:34;;;;;;;31.17;16.92;;;;;;;;;;5017719;28;20038;-72
2022/03/10 07:46:59;;;;;;;23.73;13.55;;;;;;;;;;5012368;28;20167;-72
2022/03/10 07:49:24;;;;;;;21.23;13.10;;;;;;;;;;5028989;28;20030;-71
2022/03/10 07:51:50;;;;;;;23.40;14.57;;;;;;;;;;5032361;28;20021;-72
2022/03/10 07:54:15;;;;;;;22.30;13.90;;;;;;;;;;5032416;28;20083;-72
2022/03/10 07:56:41;;;;;;;26.35;14.75;;;;;;;;;;5032110;28;20525;-71
2022/03/10 07:59:06;;;;;;;31.02;17.55;;;;;;;;;;5031220;28;20372;-71
2022/03/10 08:01:32;;;;;;;29.13;15.93;;;;;;;;;;5032777;28;20033;-71
2022/03/10 08:03:57;;;;;;;29.25;16.10;;;;;;;;;;5032275;28;20120;-71
2022/03/10 08:06:25;;;;;;;25.70;15.55;;;;;;;;;;5032423;28;20052;-71
2022/03/10 08:08:51;;;;;;;22.55;13.50;;;;;;;;;;5032069;28;20553;-72
2022/03/10 08:11:16;;;;;;;22.42;13.13;;;;;;;;;;5033028;28;20057;-71
2022/03/10 08:13:41;;;;;;;21.35;12.98;;;;;;;;;;5032769;28;20056;-71
2022/03/10 08:16:07;;;;;;;24.17;13.45;;;;;;;;;;5040339;22;20128;-71
2022/03/10 08:18:32;;;;;;;21.90;14.00;;;;;;;;;;5013494;28;20088;-70
2022/03/10 08:20:58;;;;;;;18.30;12.80;;;;;;;;;;5013208;28;20057;-72
2022/03/10 08:23:24;;;;;;;17.92;12.73;;;;;;;;;;5011345;28;20028;-71
2022/03/10 08:25:49;;;;;;;22.48;13.50;;;;;;;;;;5012480;28;20109;-71
2022/03/10 08:28:15;;;;;;;21.63;14.13;;;;;;;;;;5010096;28;20037;-71
2022/03/10 08:30:40;;;;;;;18.80;12.85;;;;;;;;;;5012262;28;20424;-71
2022/03/10 08:33:05;;;;;;;19.05;12.45;;;;;;;;;;5012238;28;20483;-70
2022/03/10 08:35:31;;;;;;;23.25;13.63;;;;;;;;;;5011167;28;20026;-71
2022/03/10 08:37:57;;;;;;;20.15;13.70;;;;;;;;;;5011936;28;20410;-74
2022/03/10 08:40:22;;;;;;;19.08;13.25;;;;;;;;;;5012448;28;20037;-72
2022/03/10 08:42:50;;;;;;;19.83;12.65;;;;;;;;;;5010089;28;20054;-71
2022/03/10 08:45:16;;;;;;;19.90;13.68;;;;;;;;;;5009942;28;20395;-71
2022/03/10 08:47:42;;;;;;;20.88;12.63;;;;;;;;;;5010200;28;20022;-72
2022/03/10 08:50:09;;;;;;;17.55;12.02;;;;;;;;;;5009713;28;20033;-72
2022/03/10 08:52:34;;;;;;;16.30;12.60;;;;;;;;;;5010511;28;20026;-71
2022/03/10 08:55:00;;;;;;;18.30;13.65;;;;;;;;;;5009433;28;20026;-71
2022/03/10 08:57:25;;;;;;;17.00;12.65;;;;;;;;;;5010604;28;20172;-72
2022/03/10 08:59:53;;;;;;;21.40;12.95;;;;;;;;;;5011166;28;20095;-71
2022/03/10 09:02:18;;;;;;;19.83;13.95;;;;;;;;;;5012031;28;20475;-71
2022/03/10 09:04:44;;;;;;;19.08;13.70;;;;;;;;;;5011871;28;20041;-71
2022/03/10 09:07:09;;;;;;;18.60;13.13;;;;;;;;;;5011425;28;20057;-72
2022/03/10 09:09:35;;;;;;;18.55;13.48;;;;;;;;;;5011365;28;20034;-71
2022/03/10 09:12:01;;;;;;;18.73;13.38;;;;;;;;;;5011598;28;20447;-70
2022/03/10 09:14:26;;;;;;;18.63;13.27;;;;;;;;;;5011501;28;20065;-71
2022/03/10 09:16:52;;;;;;;19.48;13.32;;;;;;;;;;5011003;28;20458;-70
2022/03/10 09:19:17;;;;;;;18.60;12.50;;;;;;;;;;5011364;28;20085;-72
2022/03/10 09:21:43;;;;;;;20.35;13.85;;;;;;;;;;5011396;28;20057;-71
2022/03/10 09:24:09;;;;;;;21.55;13.63;;;;;;;;;;5011274;28;20597;-70
2022/03/10 09:26:35;;;;;;;19.00;13.48;;;;;;;;;;5010799;28;20123;-70
2022/03/10 09:29:01;;;;;;;20.95;13.48;;;;;;;;;;5010814;28;20033;-72
2022/03/10 09:31:27;;;;;;;17.27;12.98;;;;;;;;;;5011262;28;20397;-72
2022/03/10 09:33:53;;;;;;;18.50;12.77;;;;;;;;;;5011259;28;20037;-72
2022/03/10 09:36:18;;;;;;;19.40;13.27;;;;;;;;;;5011011;28;20030;-74
2022/03/10 09:38:43;;;;;;;18.10;13.20;;;;;;;;;;5010855;28;20026;-72
2022/03/10 09:41:09;;;;;;;16.25;12.27;;;;;;;;;;5011114;28;20486;-71
2022/03/10 09:43:35;;;;;;;18.88;13.35;;;;;;;;;;5010240;28;20491;-71
2022/03/10 09:46:01;;;;;;;20.00;12.98;;;;;;;;;;5010515;28;20032;-71
2022/03/10 09:48:26;;;;;;;19.67;13.18;;;;;;;;;;5010013;28;20072;-72
2022/03/10 09:50:52;;;;;;;18.90;13.93;;;;;;;;;;5010551;28;20452;-71
2022/03/10 09:53:19;;;;;;;33.53;18.25;;;;;;;;;;5010668;28;20071;-72
2022/03/10 09:55:45;;;;;;;98.35;39.13;;;;;;;;;;5009853;28;20021;-72
2022/03/10 09:58:10;;;;;;;33.80;18.50;;;;;;;;;;5010685;28;20548;-71
2022/03/10 10:00:36;;;;;;;24.73;17.83;;;;;;;;;;5011117;28;20032;-72
2022/03/10 10:03:01;;;;;;;17.67;12.95;;;;;;;;;;5010974;28;20022;-72
2022/03/10 10:05:29;;;;;;;20.10;14.68;;;;;;;;;;5011191;28;20519;-71
2022/03/10 10:08:09;;;;;;;20.50;15.07;;;;;;;;;;5010045;28;20095;-71
2022/03/10 10:10:41;;;;;;;18.27;13.20;;;;;;;;;;5010643;28;20025;-71
2022/03/10 10:13:06;;;;;;;19.85;14.88;;;;;;;;;;5010595;28;20045;-72
2022/03/10 10:15:37;;;;;;;17.55;13.93;;;;;;;;;;5009956;28;20038;-71
2022/03/10 10:18:03;;;;;;;19.98;13.63;;;;;;;;;;5010240;28;20029;-72
2022/03/10 10:20:43;;;;;;;19.33;14.35;;;;;;;;;;5010261;28;20104;-71
2022/03/10 10:23:31;;;;;;;21.02;14.05;;;;;;;;;;5010241;28;20476;-72
2022/03/10 10:26:02;;;;;;;19.55;14.25;;;;;;;;;;5010362;28;20472;-72
2022/03/10 10:28:35;;;;;;;18.90;14.32;;;;;;;;;;5009525;28;20032;-72
2022/03/10 10:31:03;;;;;;;21.00;14.65;;;;;;;;;;5010418;28;20044;-73
2022/03/10 10:33:31;;;;;;;22.33;16.92;;;;;;;;;;5010060;28;20480;-71
2022/03/10 10:36:25;;;;;;;30.88;20.67;;;;;;;;;;5010204;28;20040;-71
2022/03/10 10:39:07;;;;;;;23.38;16.35;;;;;;;;;;5009862;28;20021;-71
2022/03/10 10:41:32;;;;;;;29.97;21.30;;;;;;;;;;5010472;28;20026;-71
2022/03/10 10:44:04;;;;;;;25.92;18.15;;;;;;;;;;5009744;28;20025;-71
2022/03/10 10:46:31;;;;;;;18.30;14.88;;;;;;;;;;5009984;28;20103;-72
2022/03/10 10:48:59;;;;;;;22.80;17.55;;;;;;;;;;5009396;28;20038;-72
2022/03/10 10:51:29;;;;;;;21.33;15.55;;;;;;;;;;5009643;28;20072;-72
2022/03/10 10:53:56;;;;;;;22.38;15.55;;;;;;;;;;5009685;28;20041;-70
2022/03/10 10:56:22;;;;;;;19.98;15.77;;;;;;;;;;5009985;28;20076;-73
2022/03/10 10:58:48;;;;;;;21.15;16.30;;;;;;;;;;5011003;28;20112;-73
2022/03/10 11:01:29;;;;;;;20.83;16.25;;;;;;;;;;5012619;28;20109;-72
2022/03/10 11:03:55;;;;;;;22.30;16.15;;;;;;;;;;5013315;28;20099;-73
2022/03/10 11:06:21;;;;;;;24.50;16.08;;;;;;;;;;5012454;28;20030;-74
2022/03/10 11:08:47;;;;;;;23.27;17.00;;;;;;;;;;5013293;28;20033;-73
2022/03/10 11:11:14;;;;;;;21.35;15.75;;;;;;;;;;5013317;28;20033;-74
2022/03/10 11:13:40;;;;;;;20.27;14.73;;;;;;;;;;5013542;28;20386;-73
2022/03/10 11:16:07;;;;;;;19.38;14.98;;;;;;;;;;5012981;28;20033;-73
2022/03/10 11:18:33;;;;;;;23.05;15.57;;;;;;;;;;5012947;28;20026;-73
2022/03/10 11:21:54;;;;;;;21.42;15.68;;;;;;;;;;5012536;28;20029;-72
2022/03/10 11:24:32;;;;;;;24.77;16.27;;;;;;;;;;4976862;28;20042;-72
2022/03/10 11:27:08;;;;;;;23.50;16.30;;;;;;;;;;5012127;28;20026;-73
2022/03/10 11:29:34;;;;;;;23.80;16.13;;;;;;;;;;5011827;28;20030;-75
2022/03/10 11:32:00;;;;;;;21.58;14.80;;;;;;;;;;5013390;28;20025;-73
2022/03/10 11:34:47;;;;;;;23.38;16.02;;;;;;;;;;5013704;28;20109;-73
2022/03/10 11:37:33;;;;;;;34.17;20.00;;;;;;;;;;5013348;28;20045;-75
2022/03/10 11:39:59;;;;;;;28.50;18.02;;;;;;;;;;5000987;28;20037;-73
2022/03/10 11:42:29;;;;;;;22.83;16.60;;;;;;;;;;5013471;28;20033;-73
2022/03/10 11:45:33;;;;;;;29.70;16.88;;;;;;;;;;5013371;28;20037;-72
2022/03/10 11:48:23;;;;;;;23.38;15.10;;;;;;;;;;4971474;28;20027;-72
2022/03/10 11:50:52;;;;;;;21.33;14.50;;;;;;;;;;4971954;28;20054;-73
2022/03/10 11:53:18;;;;;;;24.67;15.10;;;;;;;;;;4998497;28;20037;-73
2022/03/10 11:55:51;;;;;;;30.05;20.30;;;;;;;;;;5015999;28;20025;-74
2022/03/10 11:58:18;;;;;;;22.90;14.73;;;;;;;;;;5019167;28;20026;-72
2022/03/10 12:00:44;;;;;;;20.73;13.82;;;;;;;;;;5021314;28;20021;-74
2022/03/10 12:03:10;;;;;;;21.00;14.52;;;;;;;;;;5023438;28;20017;-72
2022/03/10 12:06:01;;;;;;;22.10;14.50;;;;;;;;;;5032694;28;20439;-72
2022/03/10 12:08:35;;;;;;;23.10;14.20;;;;;;;;;;5032529;28;20483;-72
2022/03/10 12:11:02;;;;;;;22.40;14.27;;;;;;;;;;5008722;28;20491;-73
2022/03/10 12:13:32;;;;;;;23.10;14.30;;;;;;;;;;5012504;28;20376;-72
2022/03/10 12:15:59;;;;;;;21.55;12.88;;;;;;;;;;5012325;28;20036;-73
2022/03/10 12:18:29;;;;;;;22.60;13.50;;;;;;;;;;5011666;28;20029;-72
2022/03/10 12:20:56;;;;;;;19.95;12.88;;;;;;;;;;5012267;28;20461;-73
2022/03/10 12:23:25;;;;;;;22.65;12.20;;;;;;;;;;5012695;28;20026;-72
2022/03/10 12:25:59;;;;;;;21.67;12.68;;;;;;;;;;5012591;28;20030;-72
2022/03/10 12:28:27;;;;;;;17.50;10.18;;;;;;;;;;5012222;28;20029;-73
2022/03/10 12:31:09;;;;;;;14.20;8.98;;;;;;;;;;5012329;28;20490;-72
2022/03/10 12:33:39;;;;;;;14.93;8.83;;;;;;;;;;5012303;28;20026;-72
2022/03/10 12:36:05;;;;;;;10.15;7.13;;;;;;;;;;5012240;28;20611;-73
2022/03/10 12:38:41;;;;;;;14.60;7.30;;;;;;;;;;5012131;28;20036;-72
2022/03/10 12:41:07;;;;;;;12.48;7.88;;;;;;;;;;5012300;28;20036;-72
2022/03/10 12:43:33;;;;;;;12.10;7.53;;;;;;;;;;5012473;28;20018;-72
2022/03/10 12:45:59;;;;;;;10.68;6.32;;;;;;;;;;5012337;28;20026;-75
2022/03/10 12:48:46;;;;;;;9.70;6.30;;;;;;;;;;5003566;28;20038;-71
2022/03/10 12:51:26;;;;;;;15.02;6.72;;;;;;;;;;5004424;28;20502;-72
2022/03/10 12:53:53;;;;;;;12.00;7.30;;;;;;;;;;5011653;28;20029;-71
2022/03/10 12:56:19;;;;;;;13.13;8.10;;;;;;;;;;5012301;28;20025;-72
2022/03/10 12:58:46;;;;;;;15.13;8.40;;;;;;;;;;5009869;28;20073;-70
2022/03/10 13:01:12;;;;;;;14.85;8.57;;;;;;;;;;5003526;28;20092;-70
2022/03/10 13:03:48;;;;;;;12.38;8.40;;;;;;;;;;5011677;28;20415;-71
2022/03/10 13:06:15;;;;;;;13.88;7.82;;;;;;;;;;5018103;28;20121;-72
2022/03/10 13:08:43;;;;;;;12.32;7.75;;;;;;;;;;5031270;28;20108;-72
2022/03/10 13:11:09;;;;;;;12.35;7.82;;;;;;;;;;5030076;28;20491;-71
2022/03/10 13:13:35;;;;;;;13.70;8.05;;;;;;;;;;5011874;28;20113;-70
2022/03/10 13:16:03;;;;;;;11.82;7.43;;;;;;;;;;5011607;28;20279;-71
2022/03/10 13:18:38;;;;;;;11.82;7.57;;;;;;;;;;5010093;28;20546;-72
2022/03/10 13:21:05;;;;;;;11.75;6.65;;;;;;;;;;5010447;28;20480;-69
2022/03/10 13:23:31;;;;;;;11.30;7.13;;;;;;;;;;5010823;28;20026;-71
2022/03/10 13:25:56;;;;;;;26.92;16.52;;;;;;;;;;5011231;28;20116;-71
2022/03/10 13:28:28;;;;;;;11.80;7.22;;;;;;;;;;5011088;28;20034;-70
2022/03/10 13:30:53;;;;;;;9.47;6.40;;;;;;;;;;5011023;28;20089;-72
2022/03/10 13:33:20;;;;;;;11.07;7.15;;;;;;;;;;5011265;28;20303;-73
2022/03/10 13:35:50;;;;;;;10.98;5.85;;;;;;;;;;5011338;28;20034;-70
2022/03/10 13:38:18;;;;;;;13.70;9.45;;;;;;;;;;5009126;28;20135;-72
2022/03/10 13:40:45;;;;;;;8.07;6.10;;;;;;;;;;5009667;28;20038;-72
2022/03/10 13:43:20;;;;;;;10.02;5.70;;;;;;;;;;5010593;28;20079;-70
2022/03/10 13:45:45;;;;;;;8.88;5.05;;;;;;;;;;5010552;28;20026;-72
2022/03/10 13:48:19;;;;;;;8.25;5.10;;;;;;;;;;5010578;28;20124;-70
2022/03/10 13:50:45;;;;;;;9.82;5.80;;;;;;;;;;5010255;28;20048;-70
2022/03/10 13:53:10;;;;;;;9.05;5.55;;;;;;;;;;5010740;28;20459;-72
2022/03/10 13:55:48;;;;;;;8.50;5.45;;;;;;;;;;5010901;28;20033;-71
2022/03/10 13:58:14;;;;;;;9.45;4.82;;;;;;;;;;5010813;28;20113;-69
2022/03/10 14:00:45;;;;;;;8.77;5.35;;;;;;;;;;5010958;28;20022;-72
2022/03/10 14:03:22;;;;;;;8.95;5.45;;;;;;;;;;5011928;28;20022;-74
2022/03/10 14:05:52;;;;;;;9.70;5.85;;;;;;;;;;5018782;28;20480;-74
2022/03/10 14:08:20;;;;;;;9.35;5.80;;;;;;;;;;5019320;28;20030;-74
2022/03/10 14:11:01;;;;;;;9.70;5.97;;;;;;;;;;5011806;28;20026;-70
2022/03/10 14:13:35;;;;;;;11.02;7.20;;;;;;;;;;5010510;28;20032;-74
2022/03/10 14:16:05;;;;;;;8.60;5.93;;;;;;;;;;5031368;23;20037;-71
2022/03/10 14:18:31;;;;;;;10.05;6.55;;;;;;;;;;5029975;28;20026;-73
2022/03/10 14:21:04;;;;;;;8.32;5.78;;;;;;;;;;5030402;28;20037;-73
2022/03/10 14:23:30;;;;;;;19.08;11.07;;;;;;;;;;5030212;28;20025;-72
2022/03/10 14:25:57;;;;;;;8.82;5.88;;;;;;;;;;5029766;28;20493;-70